createdAt,value
2018-05-14T00:02:40.676Z,14.70
2018-05-14T00:05:38.558Z,14.70
2018-05-14T00:08:36.595Z,14.60
2018-05-14T00:11:33.644Z,14.50
2018-05-14T00:14:34.477Z,14.50
2018-05-14T00:17:32.473Z,14.60
2018-05-14T00:20:30.400Z,14.60
2018-05-14T00:23:28.298Z,14.50
2018-05-14T00:26:26.312Z,14.50
2018-05-14T00:29:24.206Z,14.40
2018-05-14T00:32:21.937Z,14.40
2018-05-14T00:35:19.755Z,14.30
2018-05-14T00:38:17.463Z,14.30
2018-05-14T00:41:15.251Z,14.20
2018-05-14T00:44:13.132Z,14.20
2018-05-14T00:47:10.314Z,14.20
2018-05-14T00:50:08.446Z,14.30
2018-05-14T00:53:06.294Z,14.30
2018-05-14T00:56:03.912Z,14.20
2018-05-14T00:59:01.645Z,14.20
2018-05-14T01:01:59.512Z,14.20
2018-05-14T01:04:57.033Z,14.20
2018-05-14T01:07:54.960Z,14.10
2018-05-14T01:10:52.865Z,14.10
2018-05-14T01:13:50.747Z,14.10
2018-05-14T01:16:48.409Z,14.00
2018-05-14T01:19:45.460Z,14.00
2018-05-14T01:22:43.232Z,13.90
2018-05-14T01:25:41.137Z,13.90
2018-05-14T01:28:38.973Z,13.90
2018-05-14T01:31:36.971Z,13.90
2018-05-14T01:34:34.968Z,13.90
2018-05-14T01:37:32.932Z,13.90
2018-05-14T01:40:30.884Z,13.90
2018-05-14T01:43:28.864Z,13.80
2018-05-14T01:46:26.781Z,13.80
2018-05-14T01:49:24.832Z,13.60
2018-05-14T01:52:22.838Z,13.60
2018-05-14T01:55:20.670Z,13.50
2018-05-14T01:58:18.514Z,13.40
2018-05-14T02:01:16.521Z,13.40
2018-05-14T02:04:14.526Z,13.40
2018-05-14T02:07:13.163Z,13.40
2018-05-14T02:10:10.945Z,13.40
2018-05-14T02:13:08.665Z,13.40
2018-05-14T02:16:06.585Z,13.30
2018-05-14T02:19:04.659Z,13.30
2018-05-14T02:22:02.394Z,13.30
2018-05-14T02:25:00.376Z,13.20
2018-05-14T02:27:57.461Z,13.10
2018-05-14T02:30:56.418Z,13.10
2018-05-14T02:33:53.544Z,13.10
2018-05-14T02:36:52.670Z,13.00
2018-05-14T02:39:50.523Z,13.00
2018-05-14T02:42:48.634Z,13.00
2018-05-14T02:45:46.584Z,13.00
2018-05-14T02:48:44.553Z,12.90
2018-05-14T02:51:42.544Z,12.90
2018-05-14T02:54:40.517Z,12.90
2018-05-14T02:57:37.643Z,12.90
2018-05-14T03:00:35.435Z,12.90
2018-05-14T03:03:33.493Z,12.90
2018-05-14T03:06:32.009Z,12.90
2018-05-14T03:09:30.561Z,12.90
2018-05-14T03:12:28.655Z,12.90
2018-05-14T03:15:26.417Z,12.90
2018-05-14T03:18:23.580Z,13.00
2018-05-14T03:21:22.136Z,12.90
2018-05-14T03:24:20.163Z,13.10
2018-05-14T03:29:47.688Z,13.00
2018-05-14T03:32:45.202Z,13.10
2018-05-14T03:35:42.809Z,13.20
2018-05-14T03:38:40.567Z,13.30
2018-05-14T03:41:38.559Z,13.30
2018-05-14T03:44:36.935Z,13.30
2018-05-14T03:47:34.807Z,13.30
2018-05-14T03:50:32.781Z,13.40
2018-05-14T03:53:30.583Z,13.40
2018-05-14T03:56:28.577Z,13.50
2018-05-14T03:59:38.419Z,13.50
2018-05-14T04:02:48.421Z,13.70
2018-05-14T04:06:07.421Z,13.70
2018-05-14T04:09:06.095Z,13.90
2018-05-14T04:12:03.988Z,13.80
2018-05-14T04:15:02.796Z,13.90
2018-05-14T04:18:00.605Z,14.00
2018-05-14T04:20:58.400Z,14.00
2018-05-14T04:23:57.192Z,14.10
2018-05-14T04:26:56.075Z,14.20
2018-05-14T04:29:53.907Z,14.20
2018-05-14T04:32:52.719Z,14.80
2018-05-14T04:35:50.612Z,14.80
2018-05-14T04:38:49.906Z,15.20
2018-05-14T04:41:47.977Z,15.10
2018-05-14T04:44:45.952Z,15.20
2018-05-14T04:47:43.534Z,15.20
2018-05-14T04:50:41.377Z,15.20
2018-05-14T04:53:38.764Z,15.10
2018-05-14T04:56:36.529Z,15.20
2018-05-14T04:59:34.159Z,15.30
2018-05-14T05:02:31.874Z,15.40
2018-05-14T05:05:29.688Z,15.50
2018-05-14T05:08:27.286Z,15.60
2018-05-14T05:11:25.109Z,15.70
2018-05-14T05:14:22.711Z,15.80
2018-05-14T05:17:20.861Z,15.90
2018-05-14T05:20:17.880Z,15.90
2018-05-14T05:23:15.817Z,16.10
2018-05-14T05:26:13.767Z,16.10
2018-05-14T05:29:11.498Z,16.20
2018-05-14T05:32:09.654Z,16.40
2018-05-14T05:35:07.641Z,16.40
2018-05-14T05:38:05.254Z,16.60
2018-05-14T05:41:03.308Z,16.80
2018-05-14T05:44:01.169Z,16.80
2018-05-14T05:46:58.812Z,17.00
2018-05-14T05:49:56.624Z,17.10
2018-05-14T05:52:54.812Z,17.30
2018-05-14T05:55:52.714Z,17.60
2018-05-14T05:58:50.589Z,17.60
2018-05-14T06:01:48.260Z,17.80
2018-05-14T06:04:46.883Z,17.90
2018-05-14T06:07:44.928Z,18.00
2018-05-14T06:10:42.693Z,18.30
2018-05-14T06:13:40.740Z,18.60
2018-05-14T06:16:38.223Z,18.60
2018-05-14T06:19:36.103Z,18.80
2018-05-14T06:22:34.130Z,19.00
2018-05-14T06:25:31.699Z,19.20
2018-05-14T06:28:29.685Z,19.30
2018-05-14T06:31:27.504Z,19.40
2018-05-14T06:34:25.773Z,19.50
2018-05-14T06:37:23.843Z,19.90
2018-05-14T06:40:21.646Z,20.60
2018-05-14T06:43:19.505Z,20.60
2018-05-14T06:46:17.586Z,24.60
2018-05-14T06:49:15.547Z,24.50
2018-05-14T06:52:13.407Z,26.20
2018-05-14T06:55:12.193Z,26.60
2018-05-14T06:58:10.178Z,26.60
2018-05-14T07:01:07.994Z,26.10
2018-05-14T07:04:05.999Z,26.40
2018-05-14T07:07:03.896Z,27.20
2018-05-14T07:10:01.487Z,27.80
2018-05-14T07:12:59.398Z,27.30
2018-05-14T07:15:57.203Z,26.60
2018-05-14T07:18:55.876Z,26.90
2018-05-14T07:21:53.720Z,27.80
2018-05-14T07:24:51.526Z,27.00
2018-05-14T07:27:49.367Z,27.30
2018-05-14T07:30:48.992Z,27.90
2018-05-14T07:33:46.905Z,28.80
2018-05-14T07:36:44.426Z,28.00
2018-05-14T07:39:42.538Z,29.20
2018-05-14T07:42:40.430Z,27.80
2018-05-14T07:45:38.270Z,28.00
2018-05-14T07:48:35.914Z,28.40
2018-05-14T07:51:33.675Z,28.50
2018-05-14T07:54:31.689Z,29.10
2018-05-14T07:57:29.311Z,29.20
2018-05-14T08:00:27.866Z,29.40
2018-05-14T08:03:26.102Z,29.40
2018-05-14T08:06:23.478Z,29.80
2018-05-14T08:09:21.549Z,30.50
2018-05-14T08:12:19.335Z,30.20
2018-05-14T08:15:18.255Z,29.70
2018-05-14T08:18:16.579Z,29.70
2018-05-14T08:21:13.911Z,29.30
2018-05-14T08:24:11.774Z,28.60
2018-05-14T08:27:11.080Z,28.90
2018-05-14T08:30:08.372Z,28.90
2018-05-14T08:33:05.634Z,29.60
2018-05-14T08:36:03.776Z,29.60
2018-05-14T08:39:01.812Z,29.60
2018-05-14T08:41:59.327Z,30.00
2018-05-14T08:44:57.558Z,29.40
2018-05-14T08:47:55.659Z,29.40
2018-05-14T08:50:53.170Z,29.80
2018-05-14T08:53:50.988Z,29.30
2018-05-14T08:56:48.858Z,28.60
2018-05-14T08:59:47.816Z,28.50
2018-05-14T09:02:45.717Z,28.70
2018-05-14T09:05:43.689Z,28.50
2018-05-14T09:08:41.817Z,29.00
2018-05-14T09:11:39.551Z,29.00
2018-05-14T09:14:37.607Z,28.80
2018-05-14T09:17:35.436Z,29.20
2018-05-14T09:20:33.326Z,29.60
2018-05-14T09:23:31.218Z,29.90
2018-05-14T09:26:29.058Z,30.00
2018-05-14T09:29:26.786Z,30.60
2018-05-14T09:32:24.654Z,30.90
2018-05-14T09:35:22.375Z,30.60
2018-05-14T09:38:20.336Z,30.50
2018-05-14T09:41:18.065Z,31.00
2018-05-14T09:44:15.758Z,31.00
2018-05-14T09:47:13.187Z,30.90
2018-05-14T09:50:11.036Z,31.00
2018-05-14T09:53:08.720Z,30.80
2018-05-14T09:56:06.765Z,30.90
2018-05-14T09:59:04.460Z,31.90
2018-05-14T10:02:02.546Z,31.10
2018-05-14T10:05:00.452Z,31.60
2018-05-14T10:07:58.444Z,31.60
2018-05-14T10:10:56.010Z,31.90
2018-05-14T10:13:53.905Z,31.90
2018-05-14T10:16:52.788Z,31.80
2018-05-14T10:19:50.604Z,32.00
2018-05-14T10:22:48.517Z,32.20
2018-05-14T10:25:46.521Z,32.20
2018-05-14T10:28:43.951Z,32.50
2018-05-14T10:31:41.882Z,32.30
2018-05-14T10:34:39.860Z,32.20
2018-05-14T10:37:37.717Z,33.20
2018-05-14T10:40:36.374Z,33.20
2018-05-14T10:43:35.005Z,31.30
2018-05-14T10:46:32.058Z,31.30
2018-05-14T10:49:30.067Z,32.40
2018-05-14T10:52:27.209Z,32.00
2018-05-14T10:55:26.052Z,32.50
2018-05-14T10:58:23.665Z,32.40
2018-05-14T11:01:22.354Z,32.10
2018-05-14T11:04:19.957Z,32.10
2018-05-14T11:07:17.123Z,30.90
2018-05-14T11:10:14.755Z,30.90
2018-05-14T11:13:12.501Z,32.30
2018-05-14T11:16:10.395Z,32.30
2018-05-14T11:19:08.372Z,31.90
2018-05-14T11:22:06.189Z,31.80
2018-05-14T11:25:03.317Z,31.40
2018-05-14T11:28:01.416Z,31.50
2018-05-14T11:30:59.277Z,31.50
2018-05-14T11:33:57.474Z,31.10
2018-05-14T11:36:55.319Z,32.10
2018-05-14T11:39:53.128Z,31.80
2018-05-14T11:42:51.053Z,31.40
2018-05-14T11:45:48.946Z,32.30
2018-05-14T11:48:46.908Z,32.30
2018-05-14T11:51:44.525Z,32.10
2018-05-14T11:54:42.290Z,32.30
2018-05-14T11:57:39.940Z,31.80
2018-05-14T12:00:37.838Z,31.70
2018-05-14T12:03:34.852Z,31.90
2018-05-14T12:06:33.699Z,31.90
2018-05-14T12:09:31.906Z,32.10
2018-05-14T12:12:30.078Z,31.80
2018-05-14T12:15:28.080Z,31.10
2018-05-14T12:18:26.992Z,31.70
2018-05-14T12:21:24.799Z,31.80
2018-05-14T12:24:22.713Z,31.80
2018-05-14T12:27:20.984Z,32.10
2018-05-14T12:30:18.148Z,31.20
2018-05-14T12:33:16.057Z,30.60
2018-05-14T12:36:13.135Z,30.90
2018-05-14T12:39:11.065Z,31.40
2018-05-14T12:42:08.871Z,31.60
2018-05-14T12:45:06.842Z,31.70
2018-05-14T12:48:04.477Z,32.00
2018-05-14T12:51:03.301Z,32.50
2018-05-14T12:54:01.773Z,32.40
2018-05-14T12:56:59.439Z,32.50
2018-05-14T12:59:58.444Z,32.40
2018-05-14T13:02:56.425Z,32.40
2018-05-14T13:05:55.032Z,32.40
2018-05-14T13:08:52.928Z,32.00
2018-05-14T13:11:50.473Z,32.10
2018-05-14T13:14:48.340Z,32.40
2018-05-14T13:17:47.581Z,32.30
2018-05-14T13:20:47.050Z,32.30
2018-05-14T13:23:44.838Z,32.30
2018-05-14T13:26:42.328Z,32.30
2018-05-14T13:29:40.986Z,32.40
2018-05-14T13:32:38.749Z,31.40
2018-05-14T13:35:35.757Z,31.40
2018-05-14T13:38:33.662Z,31.30
2018-05-14T13:41:31.600Z,31.10
2018-05-14T13:44:28.770Z,30.40
2018-05-14T13:47:26.615Z,30.70
2018-05-14T13:50:24.415Z,30.70
2018-05-14T13:53:22.340Z,30.60
2018-05-14T13:56:22.093Z,30.20
2018-05-14T13:59:20.299Z,30.20
2018-05-14T14:02:17.624Z,30.10
2018-05-14T14:05:15.479Z,29.70
2018-05-14T14:08:12.566Z,29.50
2018-05-14T14:11:09.623Z,29.60
2018-05-14T14:14:07.303Z,29.30
2018-05-14T14:17:05.126Z,29.30
2018-05-14T14:20:02.841Z,29.20
2018-05-14T14:23:00.702Z,29.80
2018-05-14T14:25:58.471Z,29.70
2018-05-14T14:28:56.307Z,29.60
2018-05-14T14:31:55.092Z,29.20
2018-05-14T14:34:52.824Z,29.40
2018-05-14T14:37:50.625Z,29.20
2018-05-14T14:40:48.529Z,29.00
2018-05-14T14:43:46.261Z,29.00
2018-05-14T14:46:44.083Z,28.70
2018-05-14T14:49:42.046Z,28.70
2018-05-14T14:52:40.030Z,28.20
2018-05-14T14:55:38.968Z,28.70
2018-05-14T14:58:36.866Z,28.80
2018-05-14T15:01:34.743Z,28.70
2018-05-14T15:04:33.557Z,29.10
2018-05-14T15:07:31.328Z,29.00
2018-05-14T15:10:30.069Z,28.90
2018-05-14T15:13:28.971Z,28.40
2018-05-14T15:16:26.444Z,28.40
2018-05-14T15:19:24.316Z,28.70
2018-05-14T15:22:22.319Z,28.60
2018-05-14T15:25:20.126Z,28.00
2018-05-14T15:28:18.001Z,27.90
2018-05-14T15:31:15.764Z,27.30
2018-05-14T15:34:13.575Z,27.00
2018-05-14T15:37:12.393Z,27.00
2018-05-14T15:40:10.262Z,26.60
2018-05-14T15:43:08.056Z,26.70
2018-05-14T15:46:06.021Z,26.50
2018-05-14T15:49:03.568Z,26.50
2018-05-14T15:52:01.072Z,26.40
2018-05-14T15:54:58.872Z,26.70
2018-05-14T15:57:56.566Z,26.60
2018-05-14T16:00:54.456Z,26.70
2018-05-14T16:03:53.418Z,27.00
2018-05-14T16:06:51.434Z,26.90
2018-05-14T16:09:49.441Z,26.50
2018-05-14T16:12:47.284Z,26.50
2018-05-14T16:15:45.241Z,26.40
2018-05-14T16:18:44.170Z,26.70
2018-05-14T16:21:41.828Z,26.50
2018-05-14T16:24:39.841Z,26.20
2018-05-14T16:27:37.840Z,26.30
2018-05-14T16:30:35.465Z,26.30
2018-05-14T16:33:33.425Z,26.20
2018-05-14T16:36:31.029Z,26.10
2018-05-14T16:39:28.766Z,25.90
2018-05-14T16:42:27.577Z,25.80
2018-05-14T16:45:25.198Z,25.90
2018-05-14T16:48:22.959Z,25.90
2018-05-14T16:51:20.487Z,25.70
2018-05-14T16:54:18.210Z,25.50
2018-05-14T16:57:16.488Z,25.50
2018-05-14T17:00:14.371Z,25.30
2018-05-14T17:03:12.067Z,25.30
2018-05-14T17:06:09.825Z,25.40
2018-05-14T17:09:07.366Z,25.40
2018-05-14T17:12:05.006Z,25.20
2018-05-14T17:15:02.831Z,25.00
2018-05-14T17:18:00.566Z,24.80
2018-05-14T17:20:58.414Z,24.70
2018-05-14T17:23:58.096Z,24.60
2018-05-14T17:26:56.813Z,24.60
2018-05-14T17:29:54.596Z,24.50
2018-05-14T17:32:52.329Z,24.50
2018-05-14T17:35:50.070Z,24.30
2018-05-14T17:38:47.108Z,24.30
2018-05-14T17:41:45.076Z,24.30
2018-05-14T17:44:42.886Z,24.10
2018-05-14T17:47:41.000Z,24.00
2018-05-14T17:50:38.095Z,24.00
2018-05-14T17:53:36.023Z,23.90
2018-05-14T17:56:34.028Z,23.80
2018-05-14T17:59:31.734Z,23.80
2018-05-14T18:02:29.729Z,23.60
2018-05-14T18:05:27.521Z,23.50
2018-05-14T18:08:25.295Z,23.20
2018-05-14T18:11:23.101Z,23.20
2018-05-14T18:14:20.717Z,23.20
2018-05-14T18:17:19.417Z,23.20
2018-05-14T18:20:24.155Z,23.10
2018-05-14T18:23:27.920Z,23.10
2018-05-14T18:26:26.010Z,23.00
2018-05-14T18:29:29.869Z,22.90
2018-05-14T18:32:27.880Z,22.70
2018-05-14T18:35:27.809Z,22.70
2018-05-14T18:38:25.797Z,22.50
2018-05-14T18:41:23.446Z,22.50
2018-05-14T18:44:22.020Z,22.30
2018-05-14T18:47:19.394Z,22.30
2018-05-14T18:50:17.917Z,22.20
2018-05-14T18:53:15.859Z,22.20
2018-05-14T18:56:13.908Z,22.10
2018-05-14T18:59:11.896Z,22.10
2018-05-14T19:02:09.491Z,21.90
2018-05-14T19:05:07.239Z,21.90
2018-05-14T19:08:04.449Z,21.70
2018-05-14T19:11:08.442Z,21.70
2018-05-14T19:14:07.386Z,21.70
2018-05-14T19:17:11.090Z,21.70
2018-05-14T19:20:08.989Z,21.60
2018-05-14T19:23:12.486Z,21.50
2018-05-14T19:26:10.378Z,21.50
2018-05-14T19:29:14.383Z,21.20
2018-05-14T19:32:11.980Z,21.10
2018-05-14T19:35:14.983Z,21.10
2018-05-14T19:38:12.894Z,21.10
2018-05-14T19:41:10.810Z,20.90
2018-05-14T19:44:08.539Z,20.90
2018-05-14T19:47:06.488Z,20.90
2018-05-14T19:50:04.357Z,20.90
2018-05-14T19:53:02.188Z,20.80
2018-05-14T19:55:59.978Z,20.80
2018-05-14T19:58:58.010Z,20.80
2018-05-14T20:01:55.992Z,20.70
2018-05-14T20:04:53.854Z,20.50
2018-05-14T20:07:51.563Z,20.50
2018-05-14T20:10:49.520Z,20.50
2018-05-14T20:13:47.304Z,20.50
2018-05-14T20:16:45.167Z,20.50
2018-05-14T20:19:42.779Z,20.40
2018-05-14T20:22:41.331Z,20.30
2018-05-14T20:25:39.244Z,20.40
2018-05-14T20:28:36.979Z,20.30
2018-05-14T20:31:34.695Z,20.30
2018-05-14T20:34:32.620Z,20.10
2018-05-14T20:37:30.425Z,20.00
2018-05-14T20:40:28.089Z,20.00
2018-05-14T20:43:26.116Z,20.00
2018-05-14T20:46:24.282Z,19.90
2018-05-14T20:49:21.828Z,19.90
2018-05-14T20:52:19.557Z,19.90
2018-05-14T20:55:17.282Z,19.90
2018-05-14T20:58:15.012Z,19.80
2018-05-14T21:01:12.059Z,19.80
2018-05-14T21:04:09.055Z,19.70
2018-05-14T21:07:06.981Z,19.70
2018-05-14T21:10:04.927Z,19.60
2018-05-14T21:13:02.744Z,19.50
2018-05-14T21:15:59.849Z,19.40
2018-05-14T21:18:56.831Z,19.30
2018-05-14T21:21:54.009Z,19.20
2018-05-14T21:24:51.775Z,19.10
2018-05-14T21:27:49.585Z,19.10
2018-05-14T21:30:47.280Z,19.00
2018-05-14T21:33:45.129Z,18.90
2018-05-14T21:36:43.025Z,18.80
2018-05-14T21:39:40.936Z,18.80
2018-05-14T21:42:38.537Z,18.70
2018-05-14T21:45:36.248Z,18.60
2018-05-14T21:48:35.001Z,18.40
2018-05-14T21:51:32.907Z,18.40
2018-05-14T21:54:30.644Z,18.30
2018-05-14T21:57:28.151Z,18.30
2018-05-14T22:00:25.979Z,18.20
2018-05-14T22:03:23.176Z,18.10
2018-05-14T22:06:22.136Z,18.00
2018-05-14T22:09:20.022Z,17.90
2018-05-14T22:12:17.998Z,17.90
2018-05-14T22:15:15.768Z,17.90
2018-05-14T22:18:13.472Z,17.90
2018-05-14T22:21:11.292Z,17.80
2018-05-14T22:24:09.219Z,17.80
2018-05-14T22:27:07.055Z,17.70
2018-05-14T22:30:04.937Z,17.70
2018-05-14T22:33:02.856Z,17.60
2018-05-14T22:36:00.349Z,17.50
2018-05-14T22:38:58.867Z,17.50
2018-05-14T22:41:56.283Z,17.50
2018-05-14T22:44:54.018Z,17.50
2018-05-14T22:47:51.493Z,17.40
2018-05-14T22:50:49.326Z,17.40
2018-05-14T22:53:47.763Z,17.40
2018-05-14T22:56:45.447Z,17.30
2018-05-14T22:59:43.192Z,17.40
2018-05-14T23:02:41.059Z,17.30
2018-05-14T23:05:38.873Z,17.30
2018-05-14T23:08:37.637Z,17.20
2018-05-14T23:11:35.387Z,17.10
2018-05-14T23:14:32.468Z,17.10
2018-05-14T23:17:30.448Z,17.00
2018-05-14T23:20:27.631Z,16.80
2018-05-14T23:23:25.382Z,16.80
2018-05-14T23:26:23.256Z,16.70
2018-05-14T23:29:22.277Z,16.40
2018-05-14T23:32:20.122Z,16.20
2018-05-14T23:35:18.020Z,16.20
2018-05-14T23:38:15.929Z,16.10
2018-05-14T23:41:13.033Z,16.00
2018-05-14T23:44:10.964Z,16.00
2018-05-14T23:47:08.830Z,16.00
2018-05-14T23:50:07.059Z,16.00
2018-05-14T23:53:04.964Z,16.00
2018-05-14T23:56:03.710Z,16.00
2018-05-14T23:59:01.768Z,16.00
